Time;durP1;ratioP1;P1;durP2;ratioP2;P2;SDS_P1;SDS_P2;PMS_P1;PMS_P2;Temp;Humidity;BMP_temperature;BMP_pressure;BME280_temperature;BME280_humidity;BME280_pressure;Samples;Min_cycle;Max_cycle;Signal;HPM_P1;HPM_P2
2024/01/09 00:00:37;;;;;;;21.03;18.23;;;-3.60;99.90;;;;;;4901216;29;20696;-76
2024/01/09 00:03:04;;;;;;;20.33;18.40;;;-3.60;99.90;;;;;;4901349;29;20830;-76
2024/01/09 00:05:33;;;;;;;20.80;18.80;;;-3.50;99.90;;;;;;4900428;29;20480;-76
2024/01/09 00:07:59;;;;;;;21.30;19.00;;;-3.50;99.90;;;;;;4901037;29;20948;-76
2024/01/09 00:10:27;;;;;;;26.40;20.43;;;-3.60;99.90;;;;;;4902492;29;20449;-76
2024/01/09 00:12:53;;;;;;;22.37;20.07;;;-3.70;99.90;;;;;;4901239;29;20444;-76
2024/01/09 00:15:20;;;;;;;23.10;20.63;;;-3.70;99.90;;;;;;4900925;29;20877;-76
2024/01/09 00:17:47;;;;;;;21.40;19.30;;;-3.70;99.90;;;;;;4904133;29;20887;-76
2024/01/09 00:20:14;;;;;;;20.77;18.73;;;-3.70;99.90;;;;;;4900879;29;21015;-76
2024/01/09 00:22:42;;;;;;;21.67;19.37;;;-3.70;99.90;;;;;;4902178;29;20445;-76
2024/01/09 00:25:09;;;;;;;21.27;19.20;;;-3.60;99.90;;;;;;4904547;29;20524;-77
2024/01/09 00:27:36;;;;;;;22.47;20.33;;;-3.60;99.90;;;;;;4900781;29;20460;-76
2024/01/09 00:30:04;;;;;;;21.20;19.20;;;-3.70;99.90;;;;;;4905318;29;20444;-77
2024/01/09 00:32:30;;;;;;;21.53;19.30;;;-3.70;99.90;;;;;;4901517;29;20964;-76
2024/01/09 00:34:57;;;;;;;22.37;19.57;;;-3.70;99.90;;;;;;4904948;29;20804;-77
2024/01/09 00:37:24;;;;;;;21.30;19.20;;;-3.70;99.90;;;;;;4901965;29;20453;-76
2024/01/09 00:39:52;;;;;;;22.63;20.33;;;-3.70;99.90;;;;;;4903394;29;20476;-76
2024/01/09 00:42:19;;;;;;;20.40;18.30;;;-3.80;99.90;;;;;;4903285;29;20445;-76
2024/01/09 00:44:46;;;;;;;20.77;18.80;;;-3.70;99.90;;;;;;4906645;29;20480;-77
2024/01/09 00:47:13;;;;;;;20.90;18.87;;;-3.80;99.90;;;;;;4903727;29;20488;-76
2024/01/09 00:49:40;;;;;;;20.67;18.83;;;-3.80;99.90;;;;;;4903306;29;20457;-76
2024/01/09 00:52:07;;;;;;;21.83;19.77;;;-3.80;99.90;;;;;;4903699;29;20440;-76
2024/01/09 00:54:34;;;;;;;22.47;19.90;;;-3.80;99.90;;;;;;4906825;29;20448;-76
2024/01/09 00:57:02;;;;;;;22.07;19.80;;;-3.80;99.90;;;;;;4904207;29;20963;-76
2024/01/09 00:59:29;;;;;;;21.00;18.97;;;-3.80;99.90;;;;;;4905997;29;20445;-77
2024/01/09 01:01:56;;;;;;;20.60;18.70;;;-3.90;99.90;;;;;;4902068;29;20512;-76
2024/01/09 01:04:22;;;;;;;22.37;20.03;;;-3.80;99.90;;;;;;4902133;29;20456;-76
2024/01/09 01:06:49;;;;;;;19.87;18.07;;;-3.80;99.90;;;;;;4904031;29;20778;-76
2024/01/09 01:09:16;;;;;;;21.03;18.90;;;-3.90;99.90;;;;;;4906296;29;20452;-76
2024/01/09 01:11:43;;;;;;;20.50;18.37;;;-3.90;99.90;;;;;;4900095;29;20452;-76
2024/01/09 01:14:11;;;;;;;21.20;18.73;;;-3.90;99.90;;;;;;4900287;29;20459;-76
2024/01/09 01:16:37;;;;;;;20.53;18.43;;;-3.90;99.90;;;;;;4902744;29;20524;-76
2024/01/09 01:19:04;;;;;;;21.30;19.10;;;-3.90;99.90;;;;;;4901971;29;20543;-76
2024/01/09 01:21:31;;;;;;;21.83;19.40;;;-3.90;99.90;;;;;;4900913;29;20453;-77
2024/01/09 01:23:58;;;;;;;21.20;18.93;;;-3.90;99.90;;;;;;4901496;29;20520;-76
2024/01/09 01:26:25;;;;;;;21.23;19.20;;;-4.00;99.90;;;;;;4901971;29;20492;-76
2024/01/09 01:28:51;;;;;;;23.10;20.70;;;-4.00;99.90;;;;;;4902360;29;20449;-76
2024/01/09 01:31:20;;;;;;;19.97;17.97;;;-4.00;99.90;;;;;;4902828;29;21028;-76
2024/01/09 01:33:47;;;;;;;21.83;19.63;;;-4.00;99.90;;;;;;4904655;29;20520;-76
2024/01/09 01:36:15;;;;;;;21.80;19.47;;;-4.00;99.90;;;;;;4904671;29;20464;-76
2024/01/09 01:38:42;;;;;;;21.70;19.60;;;-4.00;99.90;;;;;;4908370;29;20460;-77
2024/01/09 01:41:08;;;;;;;20.20;18.47;;;-4.00;99.90;;;;;;4903986;29;20543;-76
2024/01/09 01:43:36;;;;;;;20.73;18.83;;;-4.00;99.90;;;;;;4907105;29;20579;-76
2024/01/09 01:46:03;;;;;;;20.07;18.17;;;-4.10;99.90;;;;;;4908319;29;20488;-76
2024/01/09 01:48:32;;;;;;;21.33;19.13;;;-4.00;99.90;;;;;;4905346;29;20437;-76
2024/01/09 01:50:59;;;;;;;21.80;19.53;;;-4.10;99.90;;;;;;4908301;29;20441;-76
2024/01/09 01:53:30;;;;;;;19.80;18.00;;;-4.10;99.90;;;;;;4903137;29;20452;-76
2024/01/09 01:55:56;;;;;;;21.50;19.47;;;-4.10;99.90;;;;;;4901946;29;20472;-76
2024/01/09 01:58:27;;;;;;;21.40;19.07;;;-4.10;99.90;;;;;;4901533;29;20441;-76
2024/01/09 02:00:54;;;;;;;20.60;18.40;;;-4.10;99.90;;;;;;4899242;29;20449;-76
2024/01/09 02:03:21;;;;;;;21.60;19.50;;;-4.10;99.90;;;;;;4899757;29;20718;-76
2024/01/09 02:05:50;;;;;;;20.67;18.57;;;-4.10;99.90;;;;;;4900973;29;20472;-76
2024/01/09 02:08:19;;;;;;;20.57;18.57;;;-4.10;99.90;;;;;;4902072;29;20441;-76
2024/01/09 02:10:46;;;;;;;22.73;19.80;;;-4.20;99.90;;;;;;4902884;29;20453;-76
2024/01/09 02:13:13;;;;;;;19.83;17.70;;;-4.30;99.90;;;;;;4901748;29;20946;-76
2024/01/09 02:15:40;;;;;;;20.73;18.73;;;-4.30;99.90;;;;;;4900468;29;20491;-76
2024/01/09 02:18:07;;;;;;;20.20;18.27;;;-4.30;99.90;;;;;;4901410;29;20456;-76
2024/01/09 02:20:34;;;;;;;21.60;19.00;;;-4.30;99.90;;;;;;4902075;29;20433;-76
2024/01/09 02:23:02;;;;;;;20.73;18.53;;;-4.30;99.90;;;;;;4902077;29;20501;-76
2024/01/09 02:25:29;;;;;;;21.70;19.33;;;-4.30;99.90;;;;;;4900541;29;20483;-76
2024/01/09 02:28:03;;;;;;;20.20;18.17;;;-4.30;99.90;;;;;;4904239;29;20507;-78
2024/01/09 02:30:31;;;;;;;20.93;18.67;;;-4.30;99.90;;;;;;4901089;29;20868;-76
2024/01/09 02:32:59;;;;;;;21.17;19.27;;;-4.30;99.90;;;;;;4903482;29;20457;-77
2024/01/09 02:35:26;;;;;;;20.37;18.50;;;-4.30;99.90;;;;;;4900946;29;20980;-76
2024/01/09 02:37:53;;;;;;;20.63;18.53;;;-4.30;99.90;;;;;;4904831;29;20448;-77
2024/01/09 02:40:22;;;;;;;20.13;18.07;;;-4.30;99.90;;;;;;4901715;29;20453;-76
2024/01/09 02:42:49;;;;;;;21.43;19.33;;;-4.40;99.90;;;;;;4904048;29;20457;-77
2024/01/09 02:45:15;;;;;;;20.83;18.63;;;-4.40;99.90;;;;;;4900809;29;20457;-76
2024/01/09 02:47:44;;;;;;;21.10;18.93;;;-4.30;99.90;;;;;;4905560;29;20488;-76
2024/01/09 02:50:10;;;;;;;20.97;18.97;;;-4.40;99.90;;;;;;4902301;29;20488;-76
2024/01/09 02:52:37;;;;;;;19.73;17.90;;;-4.30;99.90;;;;;;4901038;29;21007;-76
2024/01/09 02:55:04;;;;;;;20.80;18.80;;;-4.40;99.90;;;;;;4901345;29;20461;-76
2024/01/09 02:57:31;;;;;;;20.30;18.40;;;-4.40;99.90;;;;;;4901269;29;20516;-76
2024/01/09 02:59:58;;;;;;;20.73;18.37;;;-4.40;99.90;;;;;;4901513;29;20843;-77
2024/01/09 03:02:25;;;;;;;20.03;18.07;;;-4.40;99.90;;;;;;4899951;29;20460;-76
2024/01/09 03:04:53;;;;;;;20.13;18.33;;;-4.40;99.90;;;;;;4900278;29;20457;-76
2024/01/09 03:07:20;;;;;;;20.73;18.67;;;-4.50;99.90;;;;;;4901330;29;20979;-76
2024/01/09 03:09:46;;;;;;;21.20;19.10;;;-4.40;99.90;;;;;;4903104;29;20453;-76
2024/01/09 03:12:13;;;;;;;20.07;17.97;;;-4.50;99.90;;;;;;4902169;29;21016;-76
2024/01/09 03:14:41;;;;;;;21.23;19.00;;;-4.50;99.90;;;;;;4902615;29;20445;-76
2024/01/09 03:17:08;;;;;;;21.03;19.03;;;-4.50;99.90;;;;;;4918609;23;20509;-78
2024/01/09 03:19:34;;;;;;;20.53;18.37;;;-4.50;99.90;;;;;;4894387;29;20869;-78
2024/01/09 03:22:03;;;;;;;22.10;18.97;;;-4.50;99.90;;;;;;4891281;29;20445;-77
2024/01/09 03:24:30;;;;;;;20.77;18.40;;;-4.50;99.90;;;;;;4895204;29;20451;-77
2024/01/09 03:26:56;;;;;;;20.80;18.70;;;-4.50;99.90;;;;;;4883322;29;20481;-77
2024/01/09 03:29:23;;;;;;;19.83;17.90;;;-4.50;99.90;;;;;;4878436;29;20493;-78
2024/01/09 03:31:50;;;;;;;22.40;18.20;;;-4.50;99.90;;;;;;4879311;29;20465;-77
2024/01/09 03:34:17;;;;;;;20.67;18.60;;;-4.50;99.90;;;;;;4879504;29;20486;-78
2024/01/09 03:36:45;;;;;;;21.27;19.07;;;-4.50;99.90;;;;;;4879235;29;20500;-78
2024/01/09 03:39:14;;;;;;;21.07;19.03;;;-4.60;99.90;;;;;;4879387;29;20457;-77
2024/01/09 03:41:41;;;;;;;20.97;18.60;;;-4.60;99.90;;;;;;4873596;29;20450;-79
2024/01/09 03:44:08;;;;;;;20.23;18.13;;;-4.60;99.90;;;;;;4879321;29;20442;-77
2024/01/09 03:46:35;;;;;;;18.87;17.17;;;-4.50;99.90;;;;;;4879130;29;20493;-77
2024/01/09 03:49:01;;;;;;;22.57;18.67;;;-4.50;99.90;;;;;;4879407;29;20473;-77
2024/01/09 03:51:29;;;;;;;20.10;17.93;;;-4.50;99.90;;;;;;4873345;29;20463;-81
2024/01/09 03:53:56;;;;;;;20.13;18.03;;;-4.60;99.90;;;;;;4908836;29;20464;-78
2024/01/09 03:56:24;;;;;;;20.67;18.67;;;-4.60;99.90;;;;;;4881980;29;20835;-79
2024/01/09 03:58:52;;;;;;;21.20;19.03;;;-4.60;99.90;;;;;;4876585;29;20446;-79
2024/01/09 04:01:18;;;;;;;20.77;18.77;;;-4.60;99.90;;;;;;4874728;29;20957;-79
2024/01/09 04:03:46;;;;;;;20.13;17.93;;;-4.60;99.90;;;;;;4878536;29;20442;-78
2024/01/09 04:06:13;;;;;;;19.17;17.30;;;-4.60;99.90;;;;;;4878348;29;20605;-79
2024/01/09 04:08:40;;;;;;;22.17;18.03;;;-4.60;99.90;;;;;;4869981;29;21186;-79
2024/01/09 04:11:07;;;;;;;20.30;18.17;;;-4.70;99.90;;;;;;4878367;29;20453;-79
2024/01/09 04:13:40;;;;;;;19.83;17.90;;;-4.70;99.90;;;;;;4876995;29;21042;-80
2024/01/09 04:16:11;;;;;;;19.10;17.13;;;-4.70;99.90;;;;;;4886486;29;20477;-77
2024/01/09 04:18:38;;;;;;;18.50;16.60;;;-4.70;99.90;;;;;;4883415;29;20434;-79
2024/01/09 04:21:05;;;;;;;19.77;17.67;;;-4.70;99.90;;;;;;4876474;29;20462;-78
2024/01/09 04:23:32;;;;;;;19.70;17.70;;;-4.70;99.90;;;;;;4877540;29;20490;-79
2024/01/09 04:25:59;;;;;;;21.17;18.83;;;-4.70;99.90;;;;;;4877456;29;20473;-79
2024/01/09 04:28:26;;;;;;;19.80;17.80;;;-4.70;99.90;;;;;;4874605;29;20485;-78
2024/01/09 04:30:56;;;;;;;19.93;17.83;;;-4.70;99.90;;;;;;4878155;29;20956;-78
2024/01/09 04:33:23;;;;;;;19.70;17.70;;;-4.80;99.90;;;;;;4877046;29;20815;-78
2024/01/09 04:35:51;;;;;;;18.90;16.93;;;-4.80;99.90;;;;;;4878204;29;20466;-78
2024/01/09 04:38:17;;;;;;;19.47;17.47;;;-4.80;99.90;;;;;;4875936;29;20453;-78
2024/01/09 04:40:44;;;;;;;20.30;18.20;;;-4.80;99.90;;;;;;4878474;29;20462;-77
2024/01/09 04:43:11;;;;;;;19.97;17.87;;;-4.80;99.90;;;;;;4876733;29;21000;-77
2024/01/09 04:45:38;;;;;;;21.23;18.67;;;-4.70;99.90;;;;;;4878833;29;20541;-77
2024/01/09 04:48:07;;;;;;;21.90;18.37;;;-4.70;99.90;;;;;;4877597;29;20490;-77
2024/01/09 04:50:34;;;;;;;21.80;18.73;;;-4.80;99.90;;;;;;4878569;29;20473;-76
2024/01/09 04:53:01;;;;;;;19.83;17.70;;;-4.80;99.90;;;;;;4878673;29;21001;-77
2024/01/09 04:55:27;;;;;;;21.70;18.00;;;-4.80;99.90;;;;;;4873366;29;20568;-77
2024/01/09 04:57:54;;;;;;;20.30;18.10;;;-4.80;99.90;;;;;;4877478;29;20454;-77
2024/01/09 05:00:22;;;;;;;19.27;17.40;;;-4.80;99.90;;;;;;4878309;29;20449;-77
2024/01/09 05:02:49;;;;;;;20.53;18.47;;;-4.80;99.90;;;;;;4878397;29;20536;-77
2024/01/09 05:05:17;;;;;;;19.60;17.57;;;-4.80;99.90;;;;;;4877103;29;20833;-75
2024/01/09 05:07:43;;;;;;;19.33;17.37;;;-4.80;99.90;;;;;;4879118;29;20517;-77
2024/01/09 05:10:10;;;;;;;19.63;17.57;;;-4.80;99.90;;;;;;4882113;29;20501;-77
2024/01/09 05:12:37;;;;;;;18.83;17.03;;;-4.70;99.90;;;;;;4880630;29;20473;-77
2024/01/09 05:15:05;;;;;;;20.43;18.23;;;-4.70;99.90;;;;;;4881955;29;20544;-76
2024/01/09 05:17:31;;;;;;;20.90;18.67;;;-4.70;99.90;;;;;;4881567;29;20450;-77
2024/01/09 05:19:58;;;;;;;21.07;18.83;;;-4.60;99.90;;;;;;4881921;29;20442;-77
2024/01/09 05:22:26;;;;;;;20.47;18.27;;;-4.60;99.90;;;;;;4880553;29;20465;-77
2024/01/09 05:24:53;;;;;;;20.00;17.87;;;-4.60;99.90;;;;;;4882071;29;20469;-77
2024/01/09 05:27:20;;;;;;;20.10;18.00;;;-4.60;99.90;;;;;;4881316;29;20492;-77
2024/01/09 05:29:47;;;;;;;20.50;18.07;;;-4.60;99.90;;;;;;4881670;29;20441;-77
2024/01/09 05:32:14;;;;;;;22.37;19.20;;;-4.50;99.90;;;;;;4880260;29;20485;-76
2024/01/09 05:34:40;;;;;;;21.53;19.37;;;-4.50;99.90;;;;;;4881544;29;20463;-77
2024/01/09 05:37:07;;;;;;;20.60;18.47;;;-4.50;99.90;;;;;;4880300;29;20549;-77
2024/01/09 05:39:35;;;;;;;20.27;18.17;;;-4.40;99.90;;;;;;4881802;29;20510;-77
2024/01/09 05:42:03;;;;;;;20.50;18.33;;;-4.40;99.90;;;;;;4880334;29;20965;-77
2024/01/09 05:44:29;;;;;;;22.33;19.73;;;-4.40;99.90;;;;;;4881942;29;20975;-77
2024/01/09 05:46:56;;;;;;;21.17;18.73;;;-4.30;99.90;;;;;;4881698;29;20465;-77
2024/01/09 05:49:23;;;;;;;20.63;18.43;;;-4.30;99.90;;;;;;4881688;29;20472;-77
2024/01/09 05:51:50;;;;;;;22.20;18.80;;;-4.30;99.90;;;;;;4881119;29;20450;-77
2024/01/09 05:54:16;;;;;;;21.30;19.03;;;-4.30;99.90;;;;;;4880797;29;20445;-77
2024/01/09 05:56:45;;;;;;;20.57;18.43;;;-4.20;99.90;;;;;;4880019;29;21026;-78
2024/01/09 05:59:11;;;;;;;21.60;19.50;;;-4.10;99.90;;;;;;4881132;29;20529;-77
2024/01/09 06:01:38;;;;;;;21.17;18.83;;;-4.10;99.90;;;;;;4880193;29;20464;-77
2024/01/09 06:04:05;;;;;;;20.27;17.97;;;-4.10;99.90;;;;;;4881428;29;20437;-77
2024/01/09 06:06:33;;;;;;;21.07;18.90;;;-4.00;99.90;;;;;;4879766;29;20560;-77
2024/01/09 06:09:00;;;;;;;19.03;17.07;;;-4.00;99.90;;;;;;4881222;29;20981;-77
2024/01/09 06:11:27;;;;;;;19.43;17.33;;;-4.10;99.90;;;;;;4881457;29;20501;-77
2024/01/09 06:13:56;;;;;;;20.97;18.77;;;-4.10;99.90;;;;;;4881057;29;20450;-78
2024/01/09 06:16:23;;;;;;;21.33;19.27;;;-4.00;99.90;;;;;;4880327;29;20568;-77
2024/01/09 06:18:50;;;;;;;22.37;20.07;;;-4.00;99.90;;;;;;4880876;29;20545;-77
2024/01/09 06:21:16;;;;;;;26.83;18.10;;;-3.90;99.90;;;;;;4880544;29;20522;-77
2024/01/09 06:23:43;;;;;;;20.23;18.13;;;-3.90;99.90;;;;;;4881039;29;20522;-77
2024/01/09 06:26:10;;;;;;;22.27;18.87;;;-4.00;99.90;;;;;;4879518;29;20484;-77
2024/01/09 06:28:37;;;;;;;26.70;19.50;;;-4.00;99.90;;;;;;4880851;29;20524;-77
2024/01/09 06:31:05;;;;;;;20.80;18.60;;;-4.00;99.90;;;;;;4879721;29;20458;-77
2024/01/09 06:33:32;;;;;;;19.70;17.60;;;-3.90;99.90;;;;;;4882269;29;20523;-78
2024/01/09 06:36:00;;;;;;;22.40;19.40;;;-4.00;99.90;;;;;;4880697;29;20830;-78
2024/01/09 06:38:27;;;;;;;22.10;19.53;;;-4.00;99.90;;;;;;4880651;29;20446;-77
2024/01/09 06:40:54;;;;;;;22.83;19.67;;;-4.00;99.90;;;;;;4879026;29;20457;-77
2024/01/09 06:43:20;;;;;;;22.53;18.70;;;-4.00;99.90;;;;;;4880021;29;20443;-77
2024/01/09 06:45:47;;;;;;;23.47;19.13;;;-3.90;99.90;;;;;;4880724;29;20506;-77
2024/01/09 06:48:15;;;;;;;21.20;18.67;;;-3.90;99.90;;;;;;4880545;29;20485;-77
2024/01/09 06:50:42;;;;;;;20.83;18.60;;;-3.90;99.90;;;;;;4880520;29;20497;-77
2024/01/09 06:53:09;;;;;;;21.07;18.87;;;-3.90;99.90;;;;;;4880182;29;20454;-77
2024/01/09 06:55:36;;;;;;;22.00;19.60;;;-4.00;99.90;;;;;;4879221;29;20465;-77
2024/01/09 06:58:03;;;;;;;20.90;18.70;;;-4.00;99.90;;;;;;4879018;29;20465;-77
2024/01/09 07:00:30;;;;;;;22.80;19.67;;;-4.00;99.90;;;;;;4879225;29;20449;-77
2024/01/09 07:02:57;;;;;;;23.83;19.10;;;-3.90;99.90;;;;;;4880515;29;20946;-77
2024/01/09 07:05:25;;;;;;;22.67;20.07;;;-3.90;99.90;;;;;;4879804;29;20472;-77
2024/01/09 07:07:52;;;;;;;22.03;19.23;;;-3.90;99.90;;;;;;4879138;29;21084;-77
2024/01/09 07:10:19;;;;;;;22.73;20.33;;;-3.90;99.90;;;;;;4879142;29;20470;-77
2024/01/09 07:12:46;;;;;;;25.30;20.77;;;-4.00;99.90;;;;;;4878910;29;20481;-77
2024/01/09 07:15:14;;;;;;;24.93;20.83;;;-4.00;99.90;;;;;;4878724;29;20997;-77
2024/01/09 07:17:41;;;;;;;21.70;19.33;;;-4.00;99.90;;;;;;4879629;29;20528;-77
2024/01/09 07:20:08;;;;;;;23.27;20.23;;;-4.00;99.90;;;;;;4880165;29;20488;-77
2024/01/09 07:22:36;;;;;;;24.97;19.87;;;-4.00;99.90;;;;;;4879775;29;20502;-77
2024/01/09 07:25:04;;;;;;;20.73;18.00;;;-4.10;99.90;;;;;;4880104;29;20856;-77
2024/01/09 07:27:30;;;;;;;25.10;19.73;;;-4.10;99.90;;;;;;4878410;29;20795;-77
2024/01/09 07:29:57;;;;;;;22.10;19.03;;;-4.10;99.90;;;;;;4874029;29;20494;-77
2024/01/09 07:32:25;;;;;;;20.47;17.77;;;-4.10;99.90;;;;;;4879290;29;20442;-77
2024/01/09 07:34:52;;;;;;;22.77;18.93;;;-4.10;99.90;;;;;;4879844;29;20450;-77
2024/01/09 07:37:19;;;;;;;24.47;19.83;;;-4.00;99.90;;;;;;4878114;29;20516;-76
2024/01/09 07:39:48;;;;;;;24.43;19.57;;;-4.10;99.90;;;;;;4878118;29;20457;-76
2024/01/09 07:42:15;;;;;;;22.67;19.80;;;-4.00;99.90;;;;;;4879318;29;20464;-77
2024/01/09 07:44:42;;;;;;;22.30;19.13;;;-4.10;99.90;;;;;;4879443;29;20470;-77
2024/01/09 07:47:11;;;;;;;20.47;18.30;;;-4.10;99.90;;;;;;4879269;29;20474;-77
2024/01/09 07:49:37;;;;;;;23.53;18.80;;;-4.10;99.90;;;;;;4879561;29;20578;-77
2024/01/09 07:52:05;;;;;;;21.00;18.80;;;-4.00;99.90;;;;;;4877712;29;20450;-77
2024/01/09 07:54:32;;;;;;;25.63;19.40;;;-3.90;99.90;;;;;;4880026;29;20473;-79
2024/01/09 07:57:00;;;;;;;21.73;19.33;;;-3.90;99.90;;;;;;4880990;29;20466;-78
2024/01/09 07:59:27;;;;;;;25.23;19.60;;;-3.90;99.90;;;;;;4880833;29;20450;-78
2024/01/09 08:01:55;;;;;;;21.80;19.30;;;-3.80;99.90;;;;;;4881155;29;20445;-79
2024/01/09 08:04:27;;;;;;;23.17;20.40;;;-3.80;99.90;;;;;;4880336;29;20863;-81
2024/01/09 08:06:54;;;;;;;21.60;18.53;;;-3.70;99.90;;;;;;4881860;29;20450;-79
2024/01/09 08:09:21;;;;;;;22.00;18.93;;;-3.60;99.90;;;;;;4880340;29;20481;-79
2024/01/09 08:11:51;;;;;;;24.27;19.17;;;-3.70;99.90;;;;;;4881908;29;20752;-81
2024/01/09 08:14:22;;;;;;;22.03;19.37;;;-3.60;99.90;;;;;;4878320;29;20454;-78
2024/01/09 08:16:49;;;;;;;23.67;19.33;;;-3.50;99.90;;;;;;4886686;29;20536;-80
2024/01/09 08:19:17;;;;;;;21.63;19.33;;;-3.60;99.90;;;;;;4878629;29;20442;-78
2024/01/09 08:21:44;;;;;;;23.10;19.33;;;-3.60;99.90;;;;;;4879321;29;20957;-78
2024/01/09 08:24:18;;;;;;;22.13;18.97;;;-3.60;99.90;;;;;;4880467;29;20513;-82
2024/01/09 08:26:47;;;;;;;24.03;19.97;;;-3.60;99.90;;;;;;4879776;29;20988;-77
2024/01/09 08:29:14;;;;;;;24.17;20.07;;;-3.60;99.90;;;;;;4878555;29;20481;-78
2024/01/09 08:31:45;;;;;;;24.73;19.87;;;-3.60;99.90;;;;;;4879256;29;20534;-77
2024/01/09 08:34:12;;;;;;;22.30;19.43;;;-3.60;99.90;;;;;;4879010;29;20840;-78
2024/01/09 08:36:42;;;;;;;23.10;19.70;;;-3.50;99.90;;;;;;4879260;29;20469;-78
2024/01/09 08:39:10;;;;;;;23.40;19.30;;;-3.40;99.90;;;;;;4883956;29;20446;-78
2024/01/09 08:41:37;;;;;;;24.07;19.77;;;-3.40;99.90;;;;;;4877958;29;20468;-78
2024/01/09 08:44:04;;;;;;;25.13;20.83;;;-3.50;99.90;;;;;;4877403;29;20509;-78
2024/01/09 08:46:31;;;;;;;28.33;21.23;;;-3.50;99.90;;;;;;4879864;29;20514;-78
2024/01/09 08:48:59;;;;;;;25.00;20.70;;;-3.40;99.90;;;;;;4879510;29;20488;-78
2024/01/09 08:51:27;;;;;;;23.07;20.43;;;-3.40;99.90;;;;;;4877844;29;20451;-77
2024/01/09 08:53:54;;;;;;;26.63;20.97;;;-3.30;99.90;;;;;;4878712;29;20482;-77
2024/01/09 08:56:21;;;;;;;25.93;20.63;;;-3.30;99.90;;;;;;4879336;29;20472;-77
2024/01/09 08:58:48;;;;;;;24.87;20.80;;;-3.30;99.90;;;;;;4877418;29;20476;-77
2024/01/09 09:01:19;;;;;;;23.90;21.37;;;-3.30;99.90;;;;;;4879551;29;20870;-77
2024/01/09 09:03:46;;;;;;;23.67;21.10;;;-3.30;99.90;;;;;;4878647;29;20458;-77
2024/01/09 09:06:14;;;;;;;24.77;20.50;;;-3.30;99.90;;;;;;4878223;29;20497;-77
2024/01/09 09:08:41;;;;;;;25.20;21.50;;;-3.20;99.90;;;;;;4877381;29;20547;-78
2024/01/09 09:11:08;;;;;;;25.60;20.77;;;-3.20;99.90;;;;;;4879211;29;20438;-77
2024/01/09 09:13:35;;;;;;;22.90;20.33;;;-3.10;99.90;;;;;;4878573;29;20442;-78
2024/01/09 09:16:01;;;;;;;26.20;22.20;;;-3.10;99.90;;;;;;4878197;29;20516;-79
2024/01/09 09:18:28;;;;;;;24.67;21.73;;;-3.10;99.90;;;;;;4891624;29;20446;-77
2024/01/09 09:20:57;;;;;;;25.83;21.73;;;-3.20;99.90;;;;;;4877711;29;20506;-81
2024/01/09 09:23:25;;;;;;;27.03;22.63;;;-3.30;99.90;;;;;;4878521;29;20450;-79
2024/01/09 09:25:52;;;;;;;26.03;21.73;;;-3.30;99.90;;;;;;4877199;29;20502;-79
2024/01/09 09:28:19;;;;;;;27.77;22.93;;;-3.30;99.90;;;;;;4879042;29;20481;-77
2024/01/09 09:30:45;;;;;;;25.30;21.33;;;-3.30;99.90;;;;;;4878630;29;20441;-79
2024/01/09 09:33:12;;;;;;;30.27;22.93;;;-3.20;99.90;;;;;;4877690;29;20889;-79
2024/01/09 09:35:39;;;;;;;24.03;21.43;;;-3.30;99.90;;;;;;4877013;29;20508;-76
2024/01/09 09:38:06;;;;;;;27.30;22.77;;;-3.30;99.90;;;;;;4877231;29;20449;-77
2024/01/09 09:40:34;;;;;;;26.37;22.60;;;-3.20;99.90;;;;;;4877441;29;20513;-78
2024/01/09 09:43:03;;;;;;;27.60;23.30;;;-3.30;99.90;;;;;;4886698;29;20469;-76
2024/01/09 09:45:31;;;;;;;27.93;23.03;;;-3.20;99.90;;;;;;4876441;29;20584;-77
2024/01/09 09:48:01;;;;;;;27.30;21.93;;;-3.10;99.90;;;;;;4875197;29;20824;-77
2024/01/09 09:50:28;;;;;;;26.00;22.87;;;-3.00;99.90;;;;;;4877352;29;20438;-77
2024/01/09 09:52:57;;;;;;;26.23;22.10;;;-3.00;99.90;;;;;;4877570;29;20442;-77
2024/01/09 09:55:25;;;;;;;25.73;22.30;;;-2.80;99.90;;;;;;4880590;29;20532;-77
2024/01/09 09:57:53;;;;;;;26.07;22.57;;;-2.80;99.90;;;;;;4878452;29;20485;-77
2024/01/09 10:00:20;;;;;;;24.50;21.97;;;-2.80;99.90;;;;;;4880290;29;20965;-77
2024/01/09 10:02:49;;;;;;;26.90;23.10;;;-2.80;99.90;;;;;;4888163;29;20505;-77
2024/01/09 10:05:18;;;;;;;26.13;21.80;;;-2.90;99.90;;;;;;4877299;29;20462;-77
2024/01/09 10:07:48;;;;;;;28.07;22.87;;;-2.80;99.90;;;;;;4879451;29;20517;-78
2024/01/09 10:10:15;;;;;;;25.27;22.33;;;-2.80;99.90;;;;;;4877724;29;20505;-78
2024/01/09 10:12:42;;;;;;;26.27;22.87;;;-2.70;99.90;;;;;;4872684;29;20823;-77
2024/01/09 10:15:12;;;;;;;26.43;21.97;;;-2.80;99.90;;;;;;4881106;29;20450;-77
2024/01/09 10:17:39;;;;;;;26.83;21.53;;;-2.80;99.90;;;;;;4881746;29;20446;-78
2024/01/09 10:20:09;;;;;;;25.87;22.43;;;-2.80;99.90;;;;;;4877254;29;20461;-80
2024/01/09 10:22:38;;;;;;;24.87;22.30;;;-2.70;99.90;;;;;;4877710;29;20454;-77
2024/01/09 10:25:06;;;;;;;24.57;21.97;;;-2.60;99.90;;;;;;4878995;29;20462;-77
2024/01/09 10:27:34;;;;;;;27.83;22.17;;;-2.60;99.90;;;;;;4880889;29;20546;-77
2024/01/09 10:30:01;;;;;;;24.90;21.87;;;-2.60;99.90;;;;;;4880205;29;21190;-77
2024/01/09 10:32:29;;;;;;;30.37;22.40;;;-2.60;99.90;;;;;;4884960;29;20505;-77
2024/01/09 10:34:56;;;;;;;25.10;21.40;;;-2.50;99.90;;;;;;4890083;29;20455;-77
2024/01/09 10:37:22;;;;;;;27.00;21.97;;;-2.50;99.90;;;;;;4880392;29;20500;-77
2024/01/09 10:39:50;;;;;;;30.10;21.90;;;-2.50;99.90;;;;;;4880679;29;20469;-76
2024/01/09 10:42:17;;;;;;;25.23;22.23;;;-2.30;99.90;;;;;;4879010;29;20225;-77
2024/01/09 10:44:47;;;;;;;25.17;22.27;;;-2.20;99.90;;;;;;4880179;29;20467;-77
2024/01/09 10:47:14;;;;;;;26.00;20.93;;;-2.30;99.90;;;;;;4879669;29;20454;-77
2024/01/09 10:49:44;;;;;;;27.20;21.13;;;-2.10;99.90;;;;;;4879017;29;20628;-80
2024/01/09 10:52:14;;;;;;;26.97;22.00;;;-2.10;99.90;;;;;;4879954;29;20548;-77
2024/01/09 10:54:42;;;;;;;29.10;22.63;;;-2.10;99.90;;;;;;4881134;29;20455;-77
2024/01/09 10:57:13;;;;;;;24.33;20.53;;;-2.00;99.90;;;;;;4879402;29;20470;-77
2024/01/09 10:59:41;;;;;;;24.20;20.50;;;-2.10;99.90;;;;;;4879870;29;20506;-76
2024/01/09 11:02:14;;;;;;;25.47;21.97;;;-2.10;99.90;;;;;;4880304;29;20449;-77
2024/01/09 11:04:44;;;;;;;25.27;21.33;;;-2.00;99.90;;;;;;4880727;29;20454;-77
2024/01/09 11:07:14;;;;;;;23.93;21.30;;;-2.10;99.90;;;;;;4880788;29;20455;-77
2024/01/09 11:09:44;;;;;;;24.63;21.93;;;-2.00;99.90;;;;;;4879568;29;20542;-77
2024/01/09 11:12:15;;;;;;;28.90;21.97;;;-2.00;99.90;;;;;;4880901;29;20498;-77
2024/01/09 11:14:44;;;;;;;26.73;22.17;;;-2.00;99.90;;;;;;4880522;29;20446;-77
2024/01/09 11:17:13;;;;;;;25.53;22.07;;;-1.90;99.90;;;;;;4879927;29;20465;-77
2024/01/09 11:19:40;;;;;;;27.03;21.93;;;-1.90;99.90;;;;;;4880677;29;20478;-77
2024/01/09 11:22:15;;;;;;;25.07;21.27;;;-1.90;99.90;;;;;;4880949;29;20491;-77
2024/01/09 11:24:41;;;;;;;24.43;21.20;;;-1.90;99.90;;;;;;4879121;29;20450;-76
2024/01/09 11:27:12;;;;;;;24.13;21.60;;;-1.80;99.90;;;;;;4880790;29;20498;-77
2024/01/09 11:29:49;;;;;;;28.77;21.87;;;-1.80;99.90;;;;;;4879113;29;20484;-77
2024/01/09 11:32:17;;;;;;;25.13;22.30;;;-1.80;99.90;;;;;;4883584;29;20489;-77
2024/01/09 11:34:45;;;;;;;24.93;22.23;;;-1.70;99.90;;;;;;4879176;29;21051;-77
2024/01/09 11:37:20;;;;;;;24.10;21.57;;;-1.70;99.90;;;;;;4880519;29;20462;-77
2024/01/09 11:39:47;;;;;;;28.43;21.87;;;-1.70;99.90;;;;;;4880327;29;20817;-77
2024/01/09 11:42:13;;;;;;;24.27;21.67;;;-1.70;99.90;;;;;;4879714;29;20502;-77
2024/01/09 11:44:41;;;;;;;25.03;22.40;;;-1.60;99.90;;;;;;4879966;29;20475;-77
2024/01/09 11:47:08;;;;;;;23.90;21.23;;;-1.70;99.90;;;;;;4878845;29;20527;-77
2024/01/09 11:49:35;;;;;;;23.00;19.97;;;-1.60;99.90;;;;;;4880047;29;20475;-77
2024/01/09 11:52:02;;;;;;;24.43;21.87;;;-1.70;99.90;;;;;;4878605;29;20455;-77
2024/01/09 11:54:31;;;;;;;24.87;22.10;;;-1.50;99.90;;;;;;4879927;29;20841;-77
2024/01/09 11:56:58;;;;;;;27.97;22.33;;;-1.50;99.90;;;;;;4878565;29;20467;-77
2024/01/09 11:59:25;;;;;;;23.77;21.27;;;-1.40;99.90;;;;;;4879561;29;20969;-77
2024/01/09 12:01:52;;;;;;;23.03;20.13;;;-1.30;99.90;;;;;;4885269;29;20874;-78
2024/01/09 12:04:19;;;;;;;23.83;21.33;;;-1.30;99.90;;;;;;4878594;29;20443;-78
2024/01/09 12:06:47;;;;;;;22.50;20.20;;;-1.20;99.90;;;;;;4877384;29;20474;-78
2024/01/09 12:09:14;;;;;;;21.90;19.70;;;-1.10;99.90;;;;;;4871284;29;20473;-79
2024/01/09 12:11:42;;;;;;;23.30;20.47;;;-1.10;99.90;;;;;;4879006;29;20442;-79
2024/01/09 12:14:09;;;;;;;25.77;21.27;;;-1.10;99.90;;;;;;4878159;29;20450;-78
2024/01/09 12:16:36;;;;;;;23.97;21.37;;;-1.00;99.90;;;;;;4876943;29;21074;-78
2024/01/09 12:19:02;;;;;;;22.87;20.43;;;-0.90;99.90;;;;;;4876708;29;20470;-79
2024/01/09 12:21:30;;;;;;;26.53;21.80;;;-0.90;99.90;;;;;;4881139;29;20518;-78
2024/01/09 12:23:59;;;;;;;23.13;20.90;;;-0.80;99.90;;;;;;4878562;29;20451;-78
2024/01/09 12:26:28;;;;;;;22.90;20.67;;;-0.80;99.90;;;;;;4877065;29;20471;-79
2024/01/09 12:28:57;;;;;;;23.43;20.93;;;-0.80;99.90;;;;;;4877046;29;20455;-78